Time;durP1;ratioP1;P1;durP2;ratioP2;P2;SDS_P1;SDS_P2;PMS_P1;PMS_P2;Temp;Humidity;BMP_temperature;BMP_pressure;BME280_temperature;BME280_humidity;BME280_pressure;Samples;Min_cycle;Max_cycle;Signal;HPM_P1;HPM_P2
2022/06/28 00:01:55;;;;;;;6.30;2.97;;;;;;;;;;4881997;29;20375;-88
2022/06/28 00:04:21;;;;;;;6.68;2.60;;;;;;;;;;4882210;29;20036;-75
2022/06/28 00:06:48;;;;;;;4.10;2.50;;;;;;;;;;4882154;29;20446;-87
2022/06/28 00:09:14;;;;;;;6.90;2.35;;;;;;;;;;4882272;29;20040;-88
2022/06/28 00:11:47;;;;;;;4.82;2.35;;;;;;;;;;4881839;29;20088;-88
2022/06/28 00:17:04;;;;;;;4.68;2.70;;;;;;;;;;4899051;29;20043;-88
2022/06/28 00:19:31;;;;;;;4.25;2.40;;;;;;;;;;4881862;29;20474;-76
2022/06/28 00:22:18;;;;;;;5.85;2.42;;;;;;;;;;4899911;23;20060;-88
2022/06/28 00:24:44;;;;;;;3.83;2.50;;;;;;;;;;4881737;29;20061;-78
2022/06/28 00:27:32;;;;;;;4.13;2.40;;;;;;;;;;4885961;24;20433;-89
2022/06/28 00:30:01;;;;;;;4.32;2.50;;;;;;;;;;4879651;29;20079;-88
2022/06/28 00:32:28;;;;;;;3.67;2.30;;;;;;;;;;4863384;29;20061;-76
2022/06/28 00:34:54;;;;;;;4.80;2.45;;;;;;;;;;4879883;29;20037;-77
2022/06/28 00:37:20;;;;;;;5.55;2.53;;;;;;;;;;4866614;29;20036;-87
2022/06/28 00:39:46;;;;;;;3.90;2.30;;;;;;;;;;4866771;29;20029;-77
2022/06/28 00:42:12;;;;;;;4.90;2.47;;;;;;;;;;4867264;29;20069;-85
2022/06/28 00:44:39;;;;;;;6.05;2.50;;;;;;;;;;4867025;29;20072;-83
2022/06/28 00:47:07;;;;;;;4.72;2.30;;;;;;;;;;4883707;29;20494;-88
2022/06/28 00:49:33;;;;;;;4.97;2.35;;;;;;;;;;4866742;29;20064;-88
2022/06/28 00:52:02;;;;;;;3.65;2.28;;;;;;;;;;4883246;29;20033;-77
2022/06/28 00:54:29;;;;;;;6.05;2.53;;;;;;;;;;4866590;29;20058;-77
2022/06/28 00:56:55;;;;;;;5.47;2.40;;;;;;;;;;4884127;29;20487;-77
2022/06/28 00:59:22;;;;;;;3.90;2.20;;;;;;;;;;4866594;29;20487;-77
2022/06/28 01:01:48;;;;;;;3.15;2.30;;;;;;;;;;4866406;29;20025;-76
2022/06/28 01:04:14;;;;;;;3.95;2.40;;;;;;;;;;4883781;29;20033;-88
2022/06/28 01:06:41;;;;;;;5.50;2.00;;;;;;;;;;4872360;29;20064;-76
2022/06/28 01:09:07;;;;;;;3.83;2.25;;;;;;;;;;4883528;29;20029;-77
2022/06/28 01:11:33;;;;;;;3.60;2.40;;;;;;;;;;4866242;29;20037;-88
2022/06/28 01:14:00;;;;;;;4.50;2.20;;;;;;;;;;4882825;29;20025;-77
2022/06/28 01:16:27;;;;;;;4.00;2.25;;;;;;;;;;4865908;29;20033;-88
2022/06/28 01:18:53;;;;;;;4.20;2.20;;;;;;;;;;4865997;29;20029;-86
2022/06/28 01:21:20;;;;;;;4.45;2.30;;;;;;;;;;4866263;29;20029;-88
2022/06/28 01:23:48;;;;;;;3.88;2.20;;;;;;;;;;4866423;29;20029;-88
2022/06/28 01:26:15;;;;;;;4.38;2.15;;;;;;;;;;4883283;29;20048;-88
2022/06/28 01:28:42;;;;;;;5.07;2.50;;;;;;;;;;4866915;29;20038;-89
2022/06/28 01:31:08;;;;;;;3.83;2.35;;;;;;;;;;4865956;29;20033;-88
2022/06/28 01:33:38;;;;;;;5.57;2.75;;;;;;;;;;4866228;29;20059;-88
2022/06/28 01:36:08;;;;;;;5.28;2.20;;;;;;;;;;4866477;29;20116;-89
2022/06/28 01:38:35;;;;;;;3.97;2.42;;;;;;;;;;4866013;29;20064;-77
2022/06/28 01:41:01;;;;;;;5.65;2.30;;;;;;;;;;4882679;29;20033;-88
2022/06/28 01:43:28;;;;;;;5.07;2.33;;;;;;;;;;4882538;29;20064;-88
2022/06/28 01:45:55;;;;;;;3.10;2.45;;;;;;;;;;4865255;29;20060;-76
2022/06/28 01:48:21;;;;;;;3.53;2.40;;;;;;;;;;4883539;29;20029;-86
2022/06/28 01:50:48;;;;;;;5.18;2.90;;;;;;;;;;4878298;29;20100;-78
2022/06/28 01:53:14;;;;;;;5.30;2.60;;;;;;;;;;4865900;29;20025;-88
2022/06/28 01:55:41;;;;;;;5.03;2.53;;;;;;;;;;4882470;29;20049;-87
2022/06/28 01:58:08;;;;;;;4.63;2.30;;;;;;;;;;4865660;29;20515;-88
2022/06/28 02:00:34;;;;;;;4.43;2.92;;;;;;;;;;4882005;29;20100;-87
2022/06/28 02:03:00;;;;;;;6.43;2.78;;;;;;;;;;4882018;29;20505;-77
2022/06/28 02:05:27;;;;;;;6.32;3.80;;;;;;;;;;4865010;29;20036;-87
2022/06/28 02:07:54;;;;;;;8.23;3.88;;;;;;;;;;4881899;29;20117;-88
2022/06/28 02:10:21;;;;;;;5.90;3.50;;;;;;;;;;4882083;29;20040;-87
2022/06/28 02:12:47;;;;;;;6.13;3.78;;;;;;;;;;4865396;29;20037;-78
2022/06/28 02:15:14;;;;;;;6.50;4.20;;;;;;;;;;4864953;29;20041;-88
2022/06/28 02:17:40;;;;;;;8.60;3.83;;;;;;;;;;4865381;29;20066;-88
2022/06/28 02:20:07;;;;;;;6.72;3.63;;;;;;;;;;4865000;29;20025;-89
2022/06/28 02:22:33;;;;;;;7.60;3.72;;;;;;;;;;4865087;29;20033;-88
2022/06/28 02:25:00;;;;;;;7.22;3.85;;;;;;;;;;4864989;29;20064;-76
2022/06/28 02:27:26;;;;;;;7.18;3.40;;;;;;;;;;4867370;29;20101;-78
2022/06/28 02:29:52;;;;;;;10.00;3.85;;;;;;;;;;4870114;29;20041;-75
2022/06/28 02:32:18;;;;;;;7.70;3.85;;;;;;;;;;4873817;29;20009;-77
2022/06/28 02:40:24;;;;;;;6.75;3.67;;;;;;;;;;4881772;29;20047;-77
2022/06/28 02:42:57;;;;;;;6.22;3.78;;;;;;;;;;4864560;29;20161;-88
2022/06/28 02:45:24;;;;;;;7.32;3.90;;;;;;;;;;4864295;29;20041;-76
2022/06/28 02:47:51;;;;;;;7.63;3.67;;;;;;;;;;4864778;29;20402;-87
2022/06/28 02:50:17;;;;;;;7.35;3.75;;;;;;;;;;4864062;29;20033;-76
2022/06/28 02:52:43;;;;;;;6.25;3.70;;;;;;;;;;4864214;29;20168;-77
2022/06/28 02:55:10;;;;;;;7.22;3.30;;;;;;;;;;4864309;29;20060;-88
2022/06/28 02:57:36;;;;;;;7.65;3.70;;;;;;;;;;4864128;29;20029;-89
2022/06/28 03:00:07;;;;;;;5.28;3.53;;;;;;;;;;4880730;29;20047;-88
2022/06/28 03:02:37;;;;;;;6.88;3.50;;;;;;;;;;4864759;29;20025;-76
2022/06/28 03:05:08;;;;;;;5.82;3.95;;;;;;;;;;4864632;29;20029;-88
2022/06/28 03:07:35;;;;;;;5.30;3.35;;;;;;;;;;4863934;29;20486;-87
2022/06/28 03:10:01;;;;;;;6.32;3.67;;;;;;;;;;4863947;29;20419;-87
2022/06/28 03:12:27;;;;;;;9.20;3.30;;;;;;;;;;4864365;29;20040;-88
2022/06/28 03:14:53;;;;;;;7.25;3.25;;;;;;;;;;4864508;29;20088;-88
2022/06/28 03:17:20;;;;;;;10.07;3.60;;;;;;;;;;4868412;29;20029;-75
2022/06/28 03:19:46;;;;;;;7.85;3.45;;;;;;;;;;4881124;29;20029;-76
2022/06/28 03:22:12;;;;;;;6.53;3.28;;;;;;;;;;4864225;29;20085;-76
2022/06/28 03:24:38;;;;;;;6.05;3.33;;;;;;;;;;4864022;29;20124;-77
2022/06/28 03:27:05;;;;;;;6.57;3.42;;;;;;;;;;4864422;29;20053;-86
2022/06/28 03:29:31;;;;;;;5.65;3.40;;;;;;;;;;4863900;29;20033;-76
2022/06/28 03:31:57;;;;;;;6.88;3.22;;;;;;;;;;4864108;29;20120;-76
2022/06/28 03:34:23;;;;;;;5.07;3.08;;;;;;;;;;4865464;29;20037;-86
2022/06/28 03:36:54;;;;;;;6.47;3.20;;;;;;;;;;4864289;29;20033;-76
2022/06/28 03:39:20;;;;;;;4.95;2.63;;;;;;;;;;4881013;29;20031;-87
2022/06/28 03:41:46;;;;;;;5.75;2.97;;;;;;;;;;4865204;29;20037;-75
2022/06/28 03:44:12;;;;;;;6.75;3.03;;;;;;;;;;4880197;29;20041;-86
2022/06/28 03:46:38;;;;;;;4.97;3.03;;;;;;;;;;4863307;29;20054;-77
2022/06/28 03:49:05;;;;;;;6.13;2.53;;;;;;;;;;4880159;29;20053;-75
2022/06/28 03:51:31;;;;;;;10.07;3.28;;;;;;;;;;4863653;29;20037;-75
2022/06/28 03:53:58;;;;;;;6.13;2.88;;;;;;;;;;4880472;29;20025;-87
2022/06/28 03:56:24;;;;;;;6.88;2.65;;;;;;;;;;4864678;29;20035;-76
2022/06/28 03:58:50;;;;;;;7.55;3.08;;;;;;;;;;4880291;29;20081;-76
2022/06/28 04:01:16;;;;;;;4.93;2.85;;;;;;;;;;4864691;29;20029;-74
2022/06/28 04:03:42;;;;;;;7.05;3.08;;;;;;;;;;4880547;29;20029;-88
2022/06/28 04:06:08;;;;;;;6.47;3.00;;;;;;;;;;4864017;29;20057;-76
2022/06/28 04:08:35;;;;;;;4.03;2.70;;;;;;;;;;4863481;29;20033;-75
2022/06/28 04:11:16;;;;;;;4.95;2.80;;;;;;;;;;4867144;29;20101;-75
2022/06/28 04:13:43;;;;;;;4.72;2.65;;;;;;;;;;4866851;29;20036;-76
2022/06/28 04:16:10;;;;;;;8.55;3.03;;;;;;;;;;4884135;29;20428;-74
2022/06/28 04:18:36;;;;;;;8.10;3.08;;;;;;;;;;4883887;29;20029;-87
2022/06/28 04:21:02;;;;;;;8.13;2.92;;;;;;;;;;4884370;29;20036;-87
2022/06/28 04:23:29;;;;;;;6.05;2.95;;;;;;;;;;4867124;29;20025;-82
2022/06/28 04:25:55;;;;;;;6.95;2.72;;;;;;;;;;4868560;29;20029;-86
2022/06/28 04:28:22;;;;;;;5.47;2.88;;;;;;;;;;4885806;29;20124;-77
2022/06/28 04:30:48;;;;;;;9.80;3.20;;;;;;;;;;4885773;29;20025;-86
2022/06/28 04:33:14;;;;;;;5.75;2.55;;;;;;;;;;4885808;29;20068;-74
2022/06/28 04:35:41;;;;;;;8.02;2.83;;;;;;;;;;4902220;29;20037;-87
2022/06/28 04:38:07;;;;;;;7.22;2.70;;;;;;;;;;4902622;29;20028;-87
2022/06/28 04:40:33;;;;;;;5.57;2.58;;;;;;;;;;4885193;29;20079;-76
2022/06/28 04:42:59;;;;;;;5.80;2.83;;;;;;;;;;4902528;29;20047;-77
2022/06/28 04:45:25;;;;;;;11.13;3.03;;;;;;;;;;4885326;29;20083;-88
2022/06/28 04:47:51;;;;;;;6.45;2.55;;;;;;;;;;4885429;29;20028;-88
2022/06/28 04:50:18;;;;;;;5.57;2.72;;;;;;;;;;4902025;29;20443;-79
2022/06/28 04:52:44;;;;;;;6.65;3.00;;;;;;;;;;4885362;29;20522;-79
2022/06/28 04:55:10;;;;;;;7.10;2.70;;;;;;;;;;4901892;29;20041;-83
2022/06/28 04:57:36;;;;;;;6.93;2.60;;;;;;;;;;4901920;29;20057;-88
2022/06/28 05:00:03;;;;;;;5.50;2.78;;;;;;;;;;4884724;29;20040;-82
2022/06/28 05:02:29;;;;;;;5.60;2.95;;;;;;;;;;4884514;29;20035;-81
2022/06/28 05:04:55;;;;;;;6.55;2.83;;;;;;;;;;4901451;29;20029;-81
2022/06/28 05:07:21;;;;;;;6.57;2.60;;;;;;;;;;4884500;29;20052;-82
2022/06/28 05:09:47;;;;;;;7.32;2.80;;;;;;;;;;4901356;29;20060;-80
2022/06/28 05:12:14;;;;;;;5.93;2.75;;;;;;;;;;4885846;29;20028;-82
2022/06/28 05:14:40;;;;;;;4.45;2.70;;;;;;;;;;4889227;29;20032;-85
2022/06/28 05:17:06;;;;;;;5.07;2.75;;;;;;;;;;4901821;29;20461;-84
2022/06/28 05:19:35;;;;;;;5.93;3.40;;;;;;;;;;4885441;29;20071;-91
2022/06/28 05:22:01;;;;;;;6.82;3.10;;;;;;;;;;4884290;29;20434;-89
2022/06/28 05:24:28;;;;;;;5.25;3.05;;;;;;;;;;4884821;29;20092;-78
2022/06/28 05:26:54;;;;;;;6.60;3.15;;;;;;;;;;4901078;29;20052;-76
2022/06/28 05:29:20;;;;;;;7.78;3.17;;;;;;;;;;4885267;29;20041;-78
2022/06/28 05:31:46;;;;;;;7.28;3.05;;;;;;;;;;4882521;29;20020;-76
2022/06/28 05:34:13;;;;;;;8.45;3.03;;;;;;;;;;4901426;29;20028;-76
2022/06/28 05:36:39;;;;;;;5.80;3.15;;;;;;;;;;4883935;29;20068;-75
2022/06/28 05:39:06;;;;;;;8.95;3.35;;;;;;;;;;4918193;29;20067;-77
2022/06/28 05:41:32;;;;;;;6.20;2.85;;;;;;;;;;4919165;29;20028;-78
2022/06/28 05:43:59;;;;;;;6.32;2.88;;;;;;;;;;4919653;29;20028;-77
2022/06/28 05:46:25;;;;;;;5.25;2.70;;;;;;;;;;4902041;29;20051;-76
2022/06/28 05:48:51;;;;;;;4.68;2.50;;;;;;;;;;4902009;29;20477;-77
2022/06/28 05:51:17;;;;;;;5.43;2.72;;;;;;;;;;4900299;29;20103;-75
2022/06/28 05:53:43;;;;;;;7.18;3.90;;;;;;;;;;4883513;29;20036;-76
2022/06/28 05:56:10;;;;;;;9.40;4.72;;;;;;;;;;4883763;29;20040;-77
2022/06/28 05:58:36;;;;;;;6.85;4.10;;;;;;;;;;4883523;29;20518;-75
2022/06/28 06:01:03;;;;;;;8.85;3.20;;;;;;;;;;4883670;29;20156;-76
2022/06/28 06:03:29;;;;;;;10.02;3.17;;;;;;;;;;4883673;29;20048;-80
2022/06/28 06:05:55;;;;;;;9.70;3.20;;;;;;;;;;4900282;29;20029;-77
2022/06/28 06:08:21;;;;;;;6.78;2.60;;;;;;;;;;4883190;29;20055;-76
2022/06/28 06:11:10;;;;;;;8.18;3.20;;;;;;;;;;4883605;29;20501;-89
2022/06/28 06:13:54;;;;;;;5.78;2.45;;;;;;;;;;4884233;29;20028;-86
2022/06/28 06:19:45;;;;;;;7.65;2.88;;;;;;;;;;4881825;29;20079;-85
2022/06/28 06:25:34;;;;;;;7.63;2.60;;;;;;;;;;4846806;29;20081;-87
2022/06/28 06:28:00;;;;;;;5.18;2.35;;;;;;;;;;4852207;29;20033;-87
2022/06/28 06:30:27;;;;;;;6.68;2.20;;;;;;;;;;4879600;29;20104;-87
2022/06/28 06:32:53;;;;;;;7.78;2.03;;;;;;;;;;4882711;29;20028;-88
2022/06/28 06:35:28;;;;;;;4.97;1.70;;;;;;;;;;4883245;29;20044;-87
2022/06/28 06:38:00;;;;;;;4.55;1.50;;;;;;;;;;4881691;29;20060;-84
2022/06/28 06:40:27;;;;;;;3.60;1.42;;;;;;;;;;4883631;29;20071;-87
2022/06/28 06:42:53;;;;;;;5.63;1.60;;;;;;;;;;4883452;29;20360;-80
2022/06/28 06:45:19;;;;;;;2.97;1.65;;;;;;;;;;4899670;29;20091;-85
2022/06/28 06:47:45;;;;;;;5.75;1.95;;;;;;;;;;4883087;29;20386;-80
2022/06/28 06:50:11;;;;;;;5.38;3.20;;;;;;;;;;4883137;29;20025;-82
2022/06/28 06:52:37;;;;;;;4.93;3.22;;;;;;;;;;4882924;29;20039;-80
2022/06/28 06:55:04;;;;;;;8.02;5.72;;;;;;;;;;4882661;29;20147;-84
2022/06/28 06:57:30;;;;;;;4.57;3.10;;;;;;;;;;4885466;29;20039;-78
2022/06/28 06:59:56;;;;;;;3.95;1.35;;;;;;;;;;4882587;29;20085;-90
2022/06/28 07:02:22;;;;;;;5.68;1.30;;;;;;;;;;4882550;29;20475;-78
2022/06/28 07:04:48;;;;;;;2.97;1.40;;;;;;;;;;4866522;29;20044;-78
2022/06/28 07:07:18;;;;;;;3.72;1.50;;;;;;;;;;4880519;29;20033;-88
2022/06/28 07:09:44;;;;;;;3.00;1.40;;;;;;;;;;4864086;29;20112;-78
2022/06/28 07:12:13;;;;;;;7.75;1.55;;;;;;;;;;4864182;29;20037;-90
2022/06/28 07:14:39;;;;;;;2.72;1.30;;;;;;;;;;4880668;29;20097;-82
2022/06/28 07:17:08;;;;;;;4.20;1.33;;;;;;;;;;4863411;29;20381;-77
2022/06/28 07:19:34;;;;;;;3.83;1.40;;;;;;;;;;4864074;29;20037;-91
2022/06/28 07:22:03;;;;;;;2.97;1.27;;;;;;;;;;4863762;29;20031;-88
2022/06/28 07:24:30;;;;;;;3.40;1.20;;;;;;;;;;4864438;29;20040;-77
2022/06/28 07:26:56;;;;;;;3.25;1.30;;;;;;;;;;4864206;29;20571;-88
2022/06/28 07:29:22;;;;;;;2.60;1.30;;;;;;;;;;4863463;29;20121;-76
2022/06/28 07:31:50;;;;;;;3.05;1.35;;;;;;;;;;4874235;29;20405;-86
2022/06/28 07:34:16;;;;;;;2.45;1.10;;;;;;;;;;4881652;29;20048;-77
2022/06/28 07:36:43;;;;;;;3.28;1.40;;;;;;;;;;4882208;29;20033;-79
2022/06/28 07:39:09;;;;;;;5.65;1.50;;;;;;;;;;4881972;29;20075;-87
2022/06/28 07:41:36;;;;;;;3.80;1.30;;;;;;;;;;4881961;29;20091;-78
2022/06/28 07:44:02;;;;;;;2.60;1.20;;;;;;;;;;4884004;29;20047;-80
2022/06/28 07:46:37;;;;;;;2.25;1.40;;;;;;;;;;4881781;29;20514;-78
2022/06/28 07:49:12;;;;;;;3.05;1.25;;;;;;;;;;4898709;29;20036;-89
2022/06/28 07:54:23;;;;;;;2.83;1.23;;;;;;;;;;4899040;29;20077;-88
2022/06/28 07:56:49;;;;;;;1.70;1.00;;;;;;;;;;4881723;29;20027;-80
2022/06/28 07:59:15;;;;;;;2.55;1.10;;;;;;;;;;4881797;29;20467;-77
2022/06/28 08:01:41;;;;;;;3.05;1.10;;;;;;;;;;4881649;29;20028;-78
2022/06/28 08:04:08;;;;;;;3.33;1.20;;;;;;;;;;4881654;29;20108;-78
2022/06/28 08:06:35;;;;;;;1.85;1.10;;;;;;;;;;4878895;29;20048;-91
2022/06/28 08:09:05;;;;;;;2.15;1.10;;;;;;;;;;4881564;29;20092;-91
2022/06/28 08:11:33;;;;;;;3.15;1.20;;;;;;;;;;4881104;29;20036;-89
2022/06/28 08:14:00;;;;;;;3.28;1.10;;;;;;;;;;4881760;29;20025;-82
2022/06/28 08:16:26;;;;;;;4.05;1.30;;;;;;;;;;4881030;29;20056;-79
2022/06/28 08:18:52;;;;;;;2.97;1.20;;;;;;;;;;4898509;29;20093;-88
2022/06/28 08:21:18;;;;;;;1.88;1.10;;;;;;;;;;4882555;29;20032;-78
2022/06/28 08:23:44;;;;;;;2.72;1.02;;;;;;;;;;4898344;29;20035;-78
2022/06/28 08:26:10;;;;;;;3.42;1.15;;;;;;;;;;4898128;29;20025;-85
2022/06/28 08:28:36;;;;;;;2.85;1.30;;;;;;;;;;4881720;29;20080;-78
2022/06/28 08:31:03;;;;;;;3.53;1.40;;;;;;;;;;4898144;29;20359;-84
2022/06/28 08:33:32;;;;;;;3.55;1.30;;;;;;;;;;4881281;29;20084;-89
2022/06/28 08:35:58;;;;;;;2.88;1.30;;;;;;;;;;4881440;29;20092;-79
2022/06/28 08:38:24;;;;;;;2.92;1.50;;;;;;;;;;4881827;29;20036;-78
2022/06/28 08:40:51;;;;;;;2.67;1.30;;;;;;;;;;4882288;29;20033;-79
2022/06/28 08:43:17;;;;;;;3.78;1.30;;;;;;;;;;4884506;29;20039;-78
2022/06/28 08:45:44;;;;;;;2.22;1.20;;;;;;;;;;4885380;29;20032;-76
2022/06/28 08:48:25;;;;;;;2.45;1.15;;;;;;;;;;4881900;29;20039;-81
2022/06/28 08:50:55;;;;;;;2.87;1.20;;;;;;;;;;4898018;29;20112;-79
2022/06/28 08:53:24;;;;;;;4.43;1.20;;;;;;;;;;4882614;29;20497;-88
2022/06/28 08:55:57;;;;;;;2.50;1.27;;;;;;;;;;4891032;29;20028;-83
2022/06/28 08:58:24;;;;;;;4.95;1.05;;;;;;;;;;4886690;29;20121;-80
2022/06/28 09:00:51;;;;;;;2.88;0.98;;;;;;;;;;4886695;29;20537;-80
2022/06/28 09:03:19;;;;;;;3.92;1.17;;;;;;;;;;4885215;29;20382;-78
2022/06/28 09:05:50;;;;;;;1.80;0.75;;;;;;;;;;4901416;29;20021;-87
2022/06/28 09:08:16;;;;;;;2.88;1.00;;;;;;;;;;4868676;29;20036;-81
2022/06/28 09:10:46;;;;;;;4.35;0.90;;;;;;;;;;4884781;29;20029;-79
2022/06/28 09:13:14;;;;;;;3.53;1.05;;;;;;;;;;4884457;29;20025;-79
2022/06/28 09:15:46;;;;;;;3.00;0.90;;;;;;;;;;4883816;29;20056;-84
2022/06/28 09:18:16;;;;;;;1.90;0.75;;;;;;;;;;4884641;29;20486;-95
2022/06/28 09:20:43;;;;;;;2.50;0.80;;;;;;;;;;4885007;29;20177;-81
2022/06/28 09:23:30;;;;;;;3.33;0.90;;;;;;;;;;4884438;29;20036;-79
2022/06/28 09:25:57;;;;;;;3.10;0.90;;;;;;;;;;4884335;29;20025;-79
2022/06/28 09:28:28;;;;;;;2.70;1.02;;;;;;;;;;4900911;29;20378;-82
2022/06/28 09:31:22;;;;;;;2.92;1.20;;;;;;;;;;4884288;29;20131;-83
2022/06/28 09:34:46;;;;;;;1.60;0.75;;;;;;;;;;4885765;29;20037;-95
2022/06/28 09:37:12;;;;;;;1.77;0.70;;;;;;;;;;4891063;29;20525;-95
2022/06/28 09:39:38;;;;;;;3.78;1.10;;;;;;;;;;4887282;29;20047;-85
2022/06/28 09:42:07;;;;;;;2.25;0.88;;;;;;;;;;4884561;29;20063;-79
2022/06/28 09:44:33;;;;;;;1.70;0.80;;;;;;;;;;4884015;29;20037;-80
2022/06/28 09:46:59;;;;;;;5.03;1.13;;;;;;;;;;4889027;29;20111;-79
2022/06/28 09:49:29;;;;;;;2.53;1.00;;;;;;;;;;4883872;29;20490;-80
2022/06/28 09:51:57;;;;;;;2.83;1.27;;;;;;;;;;4883807;29;20024;-78
2022/06/28 09:54:25;;;;;;;2.30;0.90;;;;;;;;;;4900635;29;20032;-85
2022/06/28 09:56:54;;;;;;;1.40;0.80;;;;;;;;;;4884206;29;20032;-83
2022/06/28 09:59:21;;;;;;;3.42;0.90;;;;;;;;;;4884566;29;20104;-81
2022/06/28 10:01:48;;;;;;;2.47;1.10;;;;;;;;;;4884346;29;20108;-77
2022/06/28 10:04:14;;;;;;;3.80;1.13;;;;;;;;;;4846634;29;20030;-78
2022/06/28 10:06:41;;;;;;;1.80;0.70;;;;;;;;;;4869434;29;20023;-84
2022/06/28 10:09:07;;;;;;;2.17;0.75;;;;;;;;;;4864592;29;20041;-78
2022/06/28 10:17:23;;;;;;;3.53;0.90;;;;;;;;;;4881357;29;20418;-80
2022/06/28 10:19:49;;;;;;;4.90;0.80;;;;;;;;;;4870316;29;20123;-87
2022/06/28 10:22:16;;;;;;;2.95;0.88;;;;;;;;;;4865945;29;20032;-94
2022/06/28 10:25:02;;;;;;;1.80;0.65;;;;;;;;;;4878864;29;20551;-81
2022/06/28 10:27:43;;;;;;;2.67;1.00;;;;;;;;;;4883187;29;20161;-88
2022/06/28 10:30:18;;;;;;;4.30;1.20;;;;;;;;;;4878995;29;20394;-78
2022/06/28 10:35:52;;;;;;;3.13;1.33;;;;;;;;;;4864001;29;20056;-78
2022/06/28 10:38:19;;;;;;;3.38;1.50;;;;;;;;;;4853582;29;20028;-87
2022/06/28 10:40:49;;;;;;;4.28;1.30;;;;;;;;;;4883395;29;20043;-83
2022/06/28 10:43:19;;;;;;;4.22;1.58;;;;;;;;;;4899845;29;20062;-87
2022/06/28 10:46:00;;;;;;;4.97;1.40;;;;;;;;;;4899928;29;20048;-83
2022/06/28 10:48:27;;;;;;;2.65;1.40;;;;;;;;;;4883314;29;20047;-82
2022/06/28 10:51:00;;;;;;;3.00;1.60;;;;;;;;;;4873971;29;20028;-91
2022/06/28 10:53:27;;;;;;;2.63;1.75;;;;;;;;;;4885974;29;20035;-90
2022/06/28 10:56:12;;;;;;;2.30;1.50;;;;;;;;;;4899830;29;20044;-79
2022/06/28 10:58:57;;;;;;;3.83;1.67;;;;;;;;;;4882744;29;20060;-78
2022/06/28 11:01:44;;;;;;;2.97;1.75;;;;;;;;;;4882727;29;20055;-80
2022/06/28 11:04:13;;;;;;;2.95;1.70;;;;;;;;;;4882450;29;20092;-78
2022/06/28 11:06:42;;;;;;;2.78;1.90;;;;;;;;;;4899444;29;20088;-80
2022/06/28 11:09:18;;;;;;;5.22;1.90;;;;;;;;;;4882750;29;20087;-82
2022/06/28 11:12:02;;;;;;;3.45;1.83;;;;;;;;;;4882679;29;20036;-85
2022/06/28 11:14:29;;;;;;;3.42;2.00;;;;;;;;;;4882702;29;20422;-78
2022/06/28 11:16:57;;;;;;;5.28;1.92;;;;;;;;;;4882492;29;20447;-77
2022/06/28 11:19:24;;;;;;;2.97;1.63;;;;;;;;;;4906112;29;20037;-84
2022/06/28 11:21:59;;;;;;;2.47;1.67;;;;;;;;;;4899950;29;20029;-82
2022/06/28 11:24:26;;;;;;;4.38;1.90;;;;;;;;;;4882877;29;20029;-88
2022/06/28 11:29:36;;;;;;;4.07;1.55;;;;;;;;;;4892634;29;20027;-86
2022/06/28 11:32:14;;;;;;;4.30;1.80;;;;;;;;;;4882303;29;20024;-86
2022/06/28 11:34:42;;;;;;;3.22;2.00;;;;;;;;;;4882203;29;20036;-87
2022/06/28 11:37:08;;;;;;;3.42;1.60;;;;;;;;;;4899061;29;20057;-81
2022/06/28 11:39:34;;;;;;;2.42;1.63;;;;;;;;;;4881665;29;20029;-82
2022/06/28 11:42:03;;;;;;;3.95;1.38;;;;;;;;;;4881865;29;20032;-79
2022/06/28 11:44:29;;;;;;;4.40;1.20;;;;;;;;;;4881901;29;20073;-80
2022/06/28 11:46:55;;;;;;;3.17;1.58;;;;;;;;;;4898581;29;20029;-82
2022/06/28 11:49:32;;;;;;;4.90;1.55;;;;;;;;;;4881832;29;20029;-82
2022/06/28 11:51:59;;;;;;;5.13;1.55;;;;;;;;;;4887436;29;20036;-81
2022/06/28 11:54:25;;;;;;;2.40;1.40;;;;;;;;;;4898374;29;20029;-81
2022/06/28 11:56:51;;;;;;;3.03;1.20;;;;;;;;;;4881511;29;20036;-82
2022/06/28 11:59:17;;;;;;;2.60;1.58;;;;;;;;;;4881551;29;20029;-82
2022/06/28 12:01:44;;;;;;;2.55;1.40;;;;;;;;;;4881463;29;20033;-82
2022/06/28 12:04:10;;;;;;;4.13;1.70;;;;;;;;;;4898221;29;20032;-81
2022/06/28 12:06:40;;;;;;;3.97;1.70;;;;;;;;;;4881436;29;20028;-79
2022/06/28 12:09:10;;;;;;;3.60;1.30;;;;;;;;;;4881515;29;20057;-80
2022/06/28 12:11:36;;;;;;;4.60;1.58;;;;;;;;;;4881507;29;20149;-80
2022/06/28 12:14:36;;;;;;;4.60;1.30;;;;;;;;;;4881313;29;20062;-80
2022/06/28 12:17:03;;;;;;;3.45;1.40;;;;;;;;;;4842877;29;20144;-80
2022/06/28 12:19:30;;;;;;;2.42;1.25;;;;;;;;;;4862957;29;20390;-80
2022/06/28 12:22:12;;;;;;;2.50;1.10;;;;;;;;;;4866828;29;20479;-80
2022/06/28 12:26:44;;;;;;;4.10;1.40;;;;;;;;;;5069474;27;20438;-80
2022/06/28 12:29:11;;;;;;;2.67;1.13;;;;;;;;;;5048970;28;20018;-83
2022/06/28 12:31:43;;;;;;;4.07;1.40;;;;;;;;;;5065890;28;20033;-80
2022/06/28 12:34:09;;;;;;;7.82;1.60;;;;;;;;;;5065984;28;20124;-83
2022/06/28 12:36:36;;;;;;;8.38;2.03;;;;;;;;;;5066398;28;20545;-88
2022/06/28 12:39:03;;;;;;;5.10;1.50;;;;;;;;;;5066466;28;20382;-80
2022/06/28 12:41:29;;;;;;;7.75;1.60;;;;;;;;;;5065898;28;20033;-81
2022/06/28 12:43:55;;;;;;;28.98;4.65;;;;;;;;;;5065644;28;20033;-81
2022/06/28 12:46:25;;;;;;;4.50;1.40;;;;;;;;;;5065744;28;20103;-85
2022/06/28 12:48:51;;;;;;;2.90;1.30;;;;;;;;;;5050438;28;20025;-83
2022/06/28 12:51:17;;;;;;;3.78;1.17;;;;;;;;;;5050923;28;20033;-82
2022/06/28 12:53:43;;;;;;;2.45;1.55;;;;;;;;;;5050489;28;20025;-86
2022/06/28 12:56:09;;;;;;;4.68;1.58;;;;;;;;;;5066486;28;20138;-86
2022/06/28 12:58:36;;;;;;;4.78;1.40;;;;;;;;;;5050402;28;20492;-83
2022/06/28 13:01:02;;;;;;;2.88;1.17;;;;;;;;;;5065721;28;20499;-82
2022/06/28 13:03:29;;;;;;;3.40;1.17;;;;;;;;;;5068116;28;20033;-81
2022/06/28 13:05:55;;;;;;;3.20;1.20;;;;;;;;;;5049940;28;20474;-81
2022/06/28 13:08:21;;;;;;;2.80;1.02;;;;;;;;;;5065905;28;20061;-82
2022/06/28 13:10:47;;;;;;;2.80;1.23;;;;;;;;;;5065565;28;20044;-84
2022/06/28 13:13:19;;;;;;;2.63;1.15;;;;;;;;;;5065387;28;20489;-84
2022/06/28 13:15:45;;;;;;;3.03;1.02;;;;;;;;;;5065318;28;20056;-81
2022/06/28 13:18:11;;;;;;;2.75;1.20;;;;;;;;;;5064936;28;20033;-81
2022/06/28 13:20:37;;;;;;;3.05;1.15;;;;;;;;;;5065689;28;20029;-81
2022/06/28 13:23:04;;;;;;;3.55;1.20;;;;;;;;;;5064980;28;20380;-82
2022/06/28 13:25:30;;;;;;;6.35;1.50;;;;;;;;;;5075735;28;20052;-82
2022/06/28 13:27:56;;;;;;;5.90;1.50;;;;;;;;;;5068094;28;20031;-82
2022/06/28 13:30:22;;;;;;;5.07;1.55;;;;;;;;;;5068360;28;20063;-82
2022/06/28 13:32:48;;;;;;;3.97;1.50;;;;;;;;;;5068057;28;20029;-81
2022/06/28 13:35:14;;;;;;;3.42;1.40;;;;;;;;;;5068936;28;20025;-82
2022/06/28 13:37:42;;;;;;;5.72;1.42;;;;;;;;;;5056411;28;20029;-82
2022/06/28 13:40:09;;;;;;;3.63;1.50;;;;;;;;;;5054598;28;20032;-83
2022/06/28 13:42:35;;;;;;;3.10;1.08;;;;;;;;;;5056548;28;20025;-85
2022/06/28 13:45:07;;;;;;;5.53;1.23;;;;;;;;;;5056127;28;20397;-87
2022/06/28 13:47:39;;;;;;;3.28;1.10;;;;;;;;;;5055879;28;20032;-89
2022/06/28 13:50:06;;;;;;;3.38;1.25;;;;;;;;;;5055249;28;20037;-85
2022/06/28 13:52:32;;;;;;;4.63;1.30;;;;;;;;;;5056155;28;20021;-89
2022/06/28 13:54:58;;;;;;;4.53;1.35;;;;;;;;;;5055557;28;20021;-89
2022/06/28 13:57:25;;;;;;;2.35;1.25;;;;;;;;;;5055126;28;20036;-84
2022/06/28 13:59:55;;;;;;;3.17;1.20;;;;;;;;;;5053878;28;20485;-82
2022/06/28 14:02:21;;;;;;;3.75;1.20;;;;;;;;;;5054062;28;20025;-83
2022/06/28 14:04:47;;;;;;;2.28;1.00;;;;;;;;;;5059778;28;20078;-84
2022/06/28 14:07:13;;;;;;;5.00;1.27;;;;;;;;;;5054926;28;20078;-86
2022/06/28 14:09:42;;;;;;;3.20;1.17;;;;;;;;;;5055047;28;20029;-84
2022/06/28 14:12:08;;;;;;;4.45;1.30;;;;;;;;;;5054673;28;20063;-83
2022/06/28 14:14:36;;;;;;;3.60;1.30;;;;;;;;;;5054687;28;20040;-82
2022/06/28 14:17:02;;;;;;;6.22;1.20;;;;;;;;;;5054664;28;20044;-83
2022/06/28 14:19:28;;;;;;;2.40;1.10;;;;;;;;;;5054873;28;20115;-88
2022/06/28 14:21:56;;;;;;;3.60;1.27;;;;;;;;;;5054361;28;20025;-88
2022/06/28 14:24:23;;;;;;;3.35;1.13;;;;;;;;;;5054475;28;20021;-85
2022/06/28 14:26:50;;;;;;;5.95;1.33;;;;;;;;;;5054899;28;20055;-86
2022/06/28 14:29:17;;;;;;;2.92;1.05;;;;;;;;;;5055730;28;20025;-86
2022/06/28 14:31:43;;;;;;;2.38;1.15;;;;;;;;;;5054236;28;20053;-85
2022/06/28 14:34:13;;;;;;;3.65;1.20;;;;;;;;;;5054347;28;20036;-83
2022/06/28 14:36:39;;;;;;;4.38;1.10;;;;;;;;;;5055770;28;20128;-83
2022/06/28 14:39:06;;;;;;;4.07;1.13;;;;;;;;;;5054070;28;20120;-86
2022/06/28 14:41:32;;;;;;;3.38;1.10;;;;;;;;;;5054017;28;20473;-82
2022/06/28 14:43:58;;;;;;;4.63;1.27;;;;;;;;;;5053966;28;20058;-83
2022/06/28 14:46:24;;;;;;;4.22;1.30;;;;;;;;;;5055011;28;20032;-83
2022/06/28 14:48:51;;;;;;;2.70;1.00;;;;;;;;;;5052777;28;20021;-82
2022/06/28 14:51:17;;;;;;;3.20;1.40;;;;;;;;;;5055210;28;20033;-82
2022/06/28 14:53:44;;;;;;;3.15;1.02;;;;;;;;;;5053826;28;20064;-86
2022/06/28 14:56:10;;;;;;;4.82;1.10;;;;;;;;;;5053994;28;20028;-86
2022/06/28 14:58:36;;;;;;;4.57;1.20;;;;;;;;;;5053816;28;20028;-83
2022/06/28 15:01:03;;;;;;;3.28;1.30;;;;;;;;;;5053638;28;20029;-83
2022/06/28 15:03:30;;;;;;;3.03;1.08;;;;;;;;;;5055261;28;20033;-86
2022/06/28 15:05:57;;;;;;;3.55;1.33;;;;;;;;;;5054317;28;20033;-87
2022/06/28 15:08:23;;;;;;;2.20;1.00;;;;;;;;;;5055839;28;20059;-83
2022/06/28 15:10:49;;;;;;;3.45;1.40;;;;;;;;;;5055424;28;20036;-86
2022/06/28 15:13:18;;;;;;;2.08;1.27;;;;;;;;;;5053965;28;20032;-84
2022/06/28 15:15:45;;;;;;;2.53;1.17;;;;;;;;;;5054528;28;20025;-85
2022/06/28 15:18:11;;;;;;;4.00;1.30;;;;;;;;;;5054527;28;20109;-87
2022/06/28 15:20:38;;;;;;;2.22;1.10;;;;;;;;;;5056105;28;20024;-86